sensor_id;sensor_type;location;lat;lon;timestamp;P1;durP1;ratioP1;P2;durP2;ratioP2
53644;SDS011;39547;45.554;12.068;2022-07-29T00:05:43;14.82;;;5.60;;
53644;SDS011;39547;45.554;12.068;2022-07-29T00:11:44;13.75;;;6.43;;
53644;SDS011;39547;45.554;12.068;2022-07-29T00:17:46;14.98;;;6.97;;
53644;SDS011;39547;45.554;12.068;2022-07-29T00:23:47;13.40;;;6.15;;
53644;SDS011;39547;45.554;12.068;2022-07-29T00:29:49;16.30;;;5.75;;
53644;SDS011;39547;45.554;12.068;2022-07-29T00:35:50;13.30;;;4.47;;
53644;SDS011;39547;45.554;12.068;2022-07-29T00:41:52;12.32;;;3.65;;
53644;SDS011;39547;45.554;12.068;2022-07-29T00:47:53;10.30;;;3.30;;
53644;SDS011;39547;45.554;12.068;2022-07-29T00:53:55;10.55;;;3.15;;
53644;SDS011;39547;45.554;12.068;2022-07-29T00:59:57;10.20;;;3.20;;
53644;SDS011;39547;45.554;12.068;2022-07-29T01:05:59;11.73;;;3.25;;
53644;SDS011;39547;45.554;12.068;2022-07-29T01:12:01;11.32;;;3.00;;
53644;SDS011;39547;45.554;12.068;2022-07-29T01:18:04;10.65;;;3.25;;
53644;SDS011;39547;45.554;12.068;2022-07-29T01:24:19;11.85;;;3.30;;
53644;SDS011;39547;45.554;12.068;2022-07-29T01:30:37;10.55;;;3.10;;
53644;SDS011;39547;45.554;12.068;2022-07-29T01:36:43;11.05;;;3.20;;
53644;SDS011;39547;45.554;12.068;2022-07-29T01:42:57;11.10;;;3.10;;
53644;SDS011;39547;45.554;12.068;2022-07-29T01:49:45;10.93;;;3.20;;
53644;SDS011;39547;45.554;12.068;2022-07-29T01:55:34;10.57;;;3.13;;
53644;SDS011;39547;45.554;12.068;2022-07-29T02:01:39;9.48;;;2.90;;
53644;SDS011;39547;45.554;12.068;2022-07-29T02:07:43;11.38;;;3.20;;
53644;SDS011;39547;45.554;12.068;2022-07-29T02:13:47;10.88;;;3.00;;
53644;SDS011;39547;45.554;12.068;2022-07-29T02:19:51;10.63;;;3.20;;
53644;SDS011;39547;45.554;12.068;2022-07-29T02:25:56;10.38;;;3.03;;
53644;SDS011;39547;45.554;12.068;2022-07-29T02:31:59;10.68;;;3.30;;
53644;SDS011;39547;45.554;12.068;2022-07-29T02:38:03;10.60;;;3.13;;
53644;SDS011;39547;45.554;12.068;2022-07-29T02:44:24;10.13;;;2.92;;
53644;SDS011;39547;45.554;12.068;2022-07-29T02:50:29;10.60;;;3.22;;
53644;SDS011;39547;45.554;12.068;2022-07-29T02:56:35;10.35;;;3.05;;
53644;SDS011;39547;45.554;12.068;2022-07-29T03:02:45;10.57;;;3.38;;
53644;SDS011;39547;45.554;12.068;2022-07-29T03:14:55;10.43;;;3.22;;
53644;SDS011;39547;45.554;12.068;2022-07-29T03:20:57;10.65;;;3.38;;
53644;SDS011;39547;45.554;12.068;2022-07-29T03:26:59;11.13;;;3.35;;
53644;SDS011;39547;45.554;12.068;2022-07-29T03:33:01;10.73;;;3.65;;
53644;SDS011;39547;45.554;12.068;2022-07-29T03:39:02;10.88;;;3.78;;
53644;SDS011;39547;45.554;12.068;2022-07-29T03:45:07;10.98;;;3.80;;
53644;SDS011;39547;45.554;12.068;2022-07-29T03:51:12;11.73;;;3.60;;
53644;SDS011;39547;45.554;12.068;2022-07-29T03:57:14;11.35;;;4.10;;
53644;SDS011;39547;45.554;12.068;2022-07-29T04:03:16;11.90;;;4.00;;
53644;SDS011;39547;45.554;12.068;2022-07-29T04:09:18;12.00;;;3.88;;
53644;SDS011;39547;45.554;12.068;2022-07-29T04:15:20;10.95;;;4.00;;
53644;SDS011;39547;45.554;12.068;2022-07-29T04:21:21;11.63;;;3.80;;
53644;SDS011;39547;45.554;12.068;2022-07-29T04:27:23;11.68;;;4.30;;
53644;SDS011;39547;45.554;12.068;2022-07-29T04:33:24;11.13;;;4.10;;
53644;SDS011;39547;45.554;12.068;2022-07-29T04:39:26;10.52;;;3.50;;
53644;SDS011;39547;45.554;12.068;2022-07-29T04:45:28;11.15;;;4.00;;
53644;SDS011;39547;45.554;12.068;2022-07-29T04:51:29;11.50;;;3.97;;
53644;SDS011;39547;45.554;12.068;2022-07-29T04:57:31;11.13;;;3.70;;
53644;SDS011;39547;45.554;12.068;2022-07-29T05:03:32;10.55;;;3.67;;
53644;SDS011;39547;45.554;12.068;2022-07-29T05:09:34;12.50;;;3.85;;
53644;SDS011;39547;45.554;12.068;2022-07-29T05:15:35;10.80;;;3.90;;
53644;SDS011;39547;45.554;12.068;2022-07-29T05:21:37;11.93;;;3.90;;
53644;SDS011;39547;45.554;12.068;2022-07-29T05:27:38;11.65;;;3.80;;
53644;SDS011;39547;45.554;12.068;2022-07-29T05:33:40;11.10;;;4.15;;
53644;SDS011;39547;45.554;12.068;2022-07-29T05:39:42;11.45;;;3.90;;
53644;SDS011;39547;45.554;12.068;2022-07-29T05:45:43;12.00;;;4.60;;
53644;SDS011;39547;45.554;12.068;2022-07-29T05:51:45;11.98;;;4.10;;
53644;SDS011;39547;45.554;12.068;2022-07-29T05:57:47;11.52;;;4.20;;
53644;SDS011;39547;45.554;12.068;2022-07-29T06:03:48;11.30;;;4.28;;
53644;SDS011;39547;45.554;12.068;2022-07-29T06:09:50;11.30;;;4.03;;
53644;SDS011;39547;45.554;12.068;2022-07-29T06:15:51;11.48;;;4.05;;
53644;SDS011;39547;45.554;12.068;2022-07-29T06:21:53;11.35;;;3.90;;
53644;SDS011;39547;45.554;12.068;2022-07-29T06:27:54;12.02;;;4.53;;
53644;SDS011;39547;45.554;12.068;2022-07-29T06:33:55;11.43;;;4.00;;
53644;SDS011;39547;45.554;12.068;2022-07-29T06:39:57;11.95;;;4.50;;
53644;SDS011;39547;45.554;12.068;2022-07-29T06:46:17;11.85;;;4.28;;
53644;SDS011;39547;45.554;12.068;2022-07-29T06:52:20;10.93;;;4.00;;
53644;SDS011;39547;45.554;12.068;2022-07-29T06:58:21;11.68;;;4.18;;
53644;SDS011;39547;45.554;12.068;2022-07-29T07:04:32;11.95;;;4.07;;
53644;SDS011;39547;45.554;12.068;2022-07-29T07:10:34;11.07;;;4.00;;
53644;SDS011;39547;45.554;12.068;2022-07-29T07:16:35;12.82;;;4.40;;
53644;SDS011;39547;45.554;12.068;2022-07-29T07:22:37;11.45;;;4.10;;
53644;SDS011;39547;45.554;12.068;2022-07-29T07:28:39;11.23;;;4.20;;
53644;SDS011;39547;45.554;12.068;2022-07-29T07:34:40;11.88;;;4.40;;
53644;SDS011;39547;45.554;12.068;2022-07-29T07:40:42;11.40;;;4.35;;
53644;SDS011;39547;45.554;12.068;2022-07-29T07:46:43;13.57;;;4.72;;
53644;SDS011;39547;45.554;12.068;2022-07-29T07:52:49;12.35;;;5.30;;
53644;SDS011;39547;45.554;12.068;2022-07-29T07:58:53;11.90;;;4.63;;
53644;SDS011;39547;45.554;12.068;2022-07-29T08:04:54;12.18;;;4.90;;
53644;SDS011;39547;45.554;12.068;2022-07-29T08:10:56;12.18;;;5.18;;
53644;SDS011;39547;45.554;12.068;2022-07-29T08:16:58;11.52;;;4.78;;
53644;SDS011;39547;45.554;12.068;2022-07-29T08:22:59;12.35;;;5.30;;
53644;SDS011;39547;45.554;12.068;2022-07-29T08:29:01;12.75;;;4.65;;
53644;SDS011;39547;45.554;12.068;2022-07-29T08:35:02;12.05;;;5.07;;
53644;SDS011;39547;45.554;12.068;2022-07-29T08:41:04;13.27;;;4.85;;
53644;SDS011;39547;45.554;12.068;2022-07-29T08:47:06;13.70;;;5.30;;
53644;SDS011;39547;45.554;12.068;2022-07-29T08:53:12;12.50;;;4.97;;
53644;SDS011;39547;45.554;12.068;2022-07-29T08:59:14;11.68;;;4.85;;
53644;SDS011;39547;45.554;12.068;2022-07-29T09:05:19;13.10;;;5.05;;
53644;SDS011;39547;45.554;12.068;2022-07-29T09:11:20;11.40;;;4.60;;
53644;SDS011;39547;45.554;12.068;2022-07-29T09:30:08;12.27;;;4.50;;
53644;SDS011;39547;45.554;12.068;2022-07-29T09:36:13;11.38;;;4.40;;
53644;SDS011;39547;45.554;12.068;2022-07-29T09:42:14;11.30;;;4.47;;
53644;SDS011;39547;45.554;12.068;2022-07-29T09:48:29;11.73;;;4.75;;
53644;SDS011;39547;45.554;12.068;2022-07-29T09:54:30;11.82;;;4.35;;
53644;SDS011;39547;45.554;12.068;2022-07-29T10:00:37;12.07;;;4.70;;
53644;SDS011;39547;45.554;12.068;2022-07-29T10:07:04;12.20;;;4.40;;
53644;SDS011;39547;45.554;12.068;2022-07-29T10:13:07;11.50;;;4.50;;
53644;SDS011;39547;45.554;12.068;2022-07-29T10:19:13;12.02;;;4.43;;
53644;SDS011;39547;45.554;12.068;2022-07-29T10:25:15;11.50;;;4.70;;
53644;SDS011;39547;45.554;12.068;2022-07-29T10:37:37;11.32;;;4.40;;
53644;SDS011;39547;45.554;12.068;2022-07-29T10:44:02;11.85;;;4.45;;
53644;SDS011;39547;45.554;12.068;2022-07-29T10:50:07;11.88;;;4.45;;
53644;SDS011;39547;45.554;12.068;2022-07-29T10:56:22;12.60;;;4.30;;
53644;SDS011;39547;45.554;12.068;2022-07-29T11:08:34;11.13;;;4.20;;
53644;SDS011;39547;45.554;12.068;2022-07-29T11:20:52;12.05;;;4.45;;
53644;SDS011;39547;45.554;12.068;2022-07-29T11:33:28;12.88;;;4.30;;
53644;SDS011;39547;45.554;12.068;2022-07-29T11:39:33;11.48;;;4.10;;
53644;SDS011;39547;45.554;12.068;2022-07-29T11:45:45;11.45;;;4.03;;
53644;SDS011;39547;45.554;12.068;2022-07-29T11:51:54;12.05;;;4.10;;
53644;SDS011;39547;45.554;12.068;2022-07-29T11:57:58;10.63;;;4.07;;
53644;SDS011;39547;45.554;12.068;2022-07-29T12:04:07;11.27;;;4.10;;
53644;SDS011;39547;45.554;12.068;2022-07-29T12:10:08;11.23;;;4.00;;
53644;SDS011;39547;45.554;12.068;2022-07-29T12:16:10;12.40;;;4.05;;
53644;SDS011;39547;45.554;12.068;2022-07-29T12:22:11;10.52;;;3.45;;
53644;SDS011;39547;45.554;12.068;2022-07-29T12:28:13;10.60;;;3.72;;
53644;SDS011;39547;45.554;12.068;2022-07-29T12:34:20;11.13;;;3.72;;
53644;SDS011;39547;45.554;12.068;2022-07-29T12:40:25;10.55;;;3.60;;
53644;SDS011;39547;45.554;12.068;2022-07-29T12:46:26;11.55;;;3.78;;
53644;SDS011;39547;45.554;12.068;2022-07-29T12:52:32;11.50;;;3.85;;
53644;SDS011;39547;45.554;12.068;2022-07-29T12:58:41;11.43;;;3.95;;
53644;SDS011;39547;45.554;12.068;2022-07-29T13:04:43;12.60;;;3.92;;
53644;SDS011;39547;45.554;12.068;2022-07-29T13:10:55;10.90;;;4.03;;
53644;SDS011;39547;45.554;12.068;2022-07-29T13:17:05;11.13;;;3.85;;
53644;SDS011;39547;45.554;12.068;2022-07-29T13:23:08;11.35;;;4.00;;
53644;SDS011;39547;45.554;12.068;2022-07-29T13:29:09;11.23;;;4.10;;
53644;SDS011;39547;45.554;12.068;2022-07-29T13:35:11;11.30;;;4.10;;
53644;SDS011;39547;45.554;12.068;2022-07-29T13:41:13;12.40;;;4.00;;
53644;SDS011;39547;45.554;12.068;2022-07-29T13:47:14;12.20;;;4.13;;
53644;SDS011;39547;45.554;12.068;2022-07-29T13:53:16;11.35;;;4.03;;
53644;SDS011;39547;45.554;12.068;2022-07-29T13:59:18;12.40;;;4.07;;
53644;SDS011;39547;45.554;12.068;2022-07-29T14:05:20;10.50;;;3.80;;
53644;SDS011;39547;45.554;12.068;2022-07-29T14:11:21;10.55;;;3.80;;
53644;SDS011;39547;45.554;12.068;2022-07-29T14:17:23;11.00;;;3.90;;
53644;SDS011;39547;45.554;12.068;2022-07-29T14:23:24;12.25;;;4.07;;
53644;SDS011;39547;45.554;12.068;2022-07-29T14:29:26;12.40;;;3.80;;
53644;SDS011;39547;45.554;12.068;2022-07-29T14:35:27;11.05;;;3.80;;
53644;SDS011;39547;45.554;12.068;2022-07-29T14:41:29;12.25;;;3.90;;
53644;SDS011;39547;45.554;12.068;2022-07-29T14:47:31;12.80;;;3.90;;
53644;SDS011;39547;45.554;12.068;2022-07-29T14:53:32;11.35;;;3.97;;
53644;SDS011;39547;45.554;12.068;2022-07-29T14:59:34;12.45;;;4.18;;
53644;SDS011;39547;45.554;12.068;2022-07-29T15:05:35;12.13;;;3.97;;
53644;SDS011;39547;45.554;12.068;2022-07-29T15:17:38;13.25;;;4.43;;
53644;SDS011;39547;45.554;12.068;2022-07-29T15:23:40;12.23;;;4.40;;
53644;SDS011;39547;45.554;12.068;2022-07-29T15:29:41;10.90;;;4.10;;
53644;SDS011;39547;45.554;12.068;2022-07-29T15:35:44;13.10;;;4.13;;
53644;SDS011;39547;45.554;12.068;2022-07-29T15:41:45;12.00;;;4.30;;
53644;SDS011;39547;45.554;12.068;2022-07-29T15:47:47;11.70;;;4.30;;
53644;SDS011;39547;45.554;12.068;2022-07-29T15:53:48;10.82;;;3.90;;
53644;SDS011;39547;45.554;12.068;2022-07-29T15:59:50;13.13;;;4.20;;
53644;SDS011;39547;45.554;12.068;2022-07-29T16:05:51;12.70;;;4.40;;
53644;SDS011;39547;45.554;12.068;2022-07-29T16:11:53;11.30;;;4.28;;
53644;SDS011;39547;45.554;12.068;2022-07-29T16:17:55;11.00;;;3.95;;
53644;SDS011;39547;45.554;12.068;2022-07-29T16:23:58;11.48;;;4.03;;
53644;SDS011;39547;45.554;12.068;2022-07-29T16:30:00;13.90;;;4.18;;
53644;SDS011;39547;45.554;12.068;2022-07-29T16:36:01;12.45;;;3.92;;
53644;SDS011;39547;45.554;12.068;2022-07-29T16:42:03;13.30;;;4.38;;
53644;SDS011;39547;45.554;12.068;2022-07-29T16:48:05;11.05;;;4.03;;
53644;SDS011;39547;45.554;12.068;2022-07-29T16:54:06;12.18;;;4.00;;
53644;SDS011;39547;45.554;12.068;2022-07-29T17:00:10;12.35;;;4.30;;
53644;SDS011;39547;45.554;12.068;2022-07-29T17:06:12;12.07;;;3.88;;
53644;SDS011;39547;45.554;12.068;2022-07-29T17:12:14;11.90;;;4.22;;
53644;SDS011;39547;45.554;12.068;2022-07-29T17:18:15;13.55;;;4.35;;
53644;SDS011;39547;45.554;12.068;2022-07-29T17:24:17;11.57;;;4.05;;
53644;SDS011;39547;45.554;12.068;2022-07-29T17:30:18;12.15;;;4.25;;
53644;SDS011;39547;45.554;12.068;2022-07-29T17:36:20;11.45;;;4.20;;
53644;SDS011;39547;45.554;12.068;2022-07-29T17:42:24;11.35;;;4.40;;
53644;SDS011;39547;45.554;12.068;2022-07-29T17:48:25;13.85;;;4.50;;
53644;SDS011;39547;45.554;12.068;2022-07-29T17:54:27;17.85;;;5.13;;
53644;SDS011;39547;45.554;12.068;2022-07-29T18:00:28;17.65;;;4.50;;
53644;SDS011;39547;45.554;12.068;2022-07-29T18:06:30;13.88;;;3.80;;
53644;SDS011;39547;45.554;12.068;2022-07-29T18:12:31;15.38;;;4.00;;
53644;SDS011;39547;45.554;12.068;2022-07-29T18:18:33;12.77;;;4.10;;
53644;SDS011;39547;45.554;12.068;2022-07-29T18:24:35;11.98;;;3.88;;
53644;SDS011;39547;45.554;12.068;2022-07-29T18:30:36;12.77;;;4.20;;
53644;SDS011;39547;45.554;12.068;2022-07-29T18:36:38;13.75;;;4.40;;
53644;SDS011;39547;45.554;12.068;2022-07-29T18:42:39;12.80;;;4.68;;
53644;SDS011;39547;45.554;12.068;2022-07-29T18:48:41;15.95;;;6.32;;
53644;SDS011;39547;45.554;12.068;2022-07-29T18:54:42;14.15;;;4.90;;
53644;SDS011;39547;45.554;12.068;2022-07-29T19:00:44;13.55;;;5.22;;
53644;SDS011;39547;45.554;12.068;2022-07-29T19:06:45;13.93;;;4.93;;
53644;SDS011;39547;45.554;12.068;2022-07-29T19:12:46;12.68;;;4.60;;
53644;SDS011;39547;45.554;12.068;2022-07-29T19:18:48;12.73;;;5.00;;
53644;SDS011;39547;45.554;12.068;2022-07-29T19:24:49;14.40;;;4.90;;
53644;SDS011;39547;45.554;12.068;2022-07-29T19:30:51;12.00;;;4.60;;
53644;SDS011;39547;45.554;12.068;2022-07-29T19:36:53;12.07;;;4.35;;
53644;SDS011;39547;45.554;12.068;2022-07-29T19:42:54;12.13;;;4.07;;
53644;SDS011;39547;45.554;12.068;2022-07-29T19:48:56;11.00;;;4.10;;
53644;SDS011;39547;45.554;12.068;2022-07-29T19:54:57;12.38;;;4.43;;
53644;SDS011;39547;45.554;12.068;2022-07-29T20:00:59;11.52;;;4.20;;
53644;SDS011;39547;45.554;12.068;2022-07-29T20:07:00;11.18;;;3.97;;
53644;SDS011;39547;45.554;12.068;2022-07-29T20:13:02;10.43;;;3.50;;
53644;SDS011;39547;45.554;12.068;2022-07-29T20:19:03;10.90;;;3.70;;
53644;SDS011;39547;45.554;12.068;2022-07-29T20:25:05;11.38;;;3.80;;
53644;SDS011;39547;45.554;12.068;2022-07-29T20:31:09;11.95;;;3.67;;
53644;SDS011;39547;45.554;12.068;2022-07-29T20:37:11;11.10;;;3.70;;
53644;SDS011;39547;45.554;12.068;2022-07-29T20:43:14;10.40;;;3.43;;
53644;SDS011;39547;45.554;12.068;2022-07-29T20:49:15;10.90;;;3.30;;
53644;SDS011;39547;45.554;12.068;2022-07-29T20:55:17;10.65;;;3.50;;
53644;SDS011;39547;45.554;12.068;2022-07-29T21:01:18;11.00;;;3.70;;
53644;SDS011;39547;45.554;12.068;2022-07-29T21:07:20;10.95;;;3.83;;
53644;SDS011;39547;45.554;12.068;2022-07-29T21:13:22;10.80;;;3.78;;
53644;SDS011;39547;45.554;12.068;2022-07-29T21:19:25;10.50;;;3.35;;
53644;SDS011;39547;45.554;12.068;2022-07-29T21:25:26;10.93;;;3.70;;
53644;SDS011;39547;45.554;12.068;2022-07-29T21:31:28;11.95;;;3.97;;
53644;SDS011;39547;45.554;12.068;2022-07-29T21:37:29;11.10;;;3.55;;
53644;SDS011;39547;45.554;12.068;2022-07-29T21:43:31;10.77;;;3.40;;
53644;SDS011;39547;45.554;12.068;2022-07-29T21:49:33;10.82;;;3.20;;
53644;SDS011;39547;45.554;12.068;2022-07-29T21:55:34;11.18;;;3.15;;
53644;SDS011;39547;45.554;12.068;2022-07-29T22:01:35;10.18;;;3.00;;
53644;SDS011;39547;45.554;12.068;2022-07-29T22:07:37;10.57;;;3.47;;
53644;SDS011;39547;45.554;12.068;2022-07-29T22:13:39;10.80;;;3.10;;
53644;SDS011;39547;45.554;12.068;2022-07-29T22:19:40;10.50;;;3.17;;
53644;SDS011;39547;45.554;12.068;2022-07-29T22:25:41;10.60;;;2.95;;
53644;SDS011;39547;45.554;12.068;2022-07-29T22:31:43;10.63;;;3.20;;
53644;SDS011;39547;45.554;12.068;2022-07-29T22:37:45;10.20;;;3.00;;
53644;SDS011;39547;45.554;12.068;2022-07-29T22:43:47;10.00;;;3.00;;
53644;SDS011;39547;45.554;12.068;2022-07-29T22:49:48;9.73;;;2.90;;
53644;SDS011;39547;45.554;12.068;2022-07-29T22:55:49;10.02;;;3.00;;
53644;SDS011;39547;45.554;12.068;2022-07-29T23:01:51;10.27;;;3.03;;
53644;SDS011;39547;45.554;12.068;2022-07-29T23:07:52;9.93;;;3.00;;
53644;SDS011;39547;45.554;12.068;2022-07-29T23:13:54;10.38;;;3.00;;
53644;SDS011;39547;45.554;12.068;2022-07-29T23:19:55;10.05;;;2.97;;
53644;SDS011;39547;45.554;12.068;2022-07-29T23:25:56;10.40;;;3.20;;
53644;SDS011;39547;45.554;12.068;2022-07-29T23:31:58;10.63;;;3.10;;
53644;SDS011;39547;45.554;12.068;2022-07-29T23:37:59;10.55;;;3.20;;
53644;SDS011;39547;45.554;12.068;2022-07-29T23:44:01;11.13;;;3.15;;
53644;SDS011;39547;45.554;12.068;2022-07-29T23:50:04;10.10;;;3.10;;
53644;SDS011;39547;45.554;12.068;2022-07-29T23:56:06;10.68;;;3.47;;
